createdAt,value
2019-01-23T00:00:31.683Z,-4.58
2019-01-23T00:03:00.218Z,-4.67
2019-01-23T00:05:28.752Z,-4.68
2019-01-23T00:07:57.240Z,-4.73
2019-01-23T00:10:25.888Z,-4.72
2019-01-23T00:12:54.396Z,-4.76
2019-01-23T00:15:22.878Z,-4.81
2019-01-23T00:17:51.363Z,-4.90
2019-01-23T00:20:19.832Z,-4.90
2019-01-23T00:22:48.323Z,-4.92
2019-01-23T00:25:16.794Z,-4.94
2019-01-23T00:27:45.292Z,-5.03
2019-01-23T00:30:15.502Z,-5.05
2019-01-23T00:32:44.014Z,-5.01
2019-01-23T00:35:12.632Z,-5.11
2019-01-23T00:37:41.130Z,-5.14
2019-01-23T00:40:12.773Z,-5.14
2019-01-23T00:42:41.297Z,-5.14
2019-01-23T00:45:12.798Z,-5.15
2019-01-23T00:47:41.290Z,-5.18
2019-01-23T00:50:11.501Z,-5.23
2019-01-23T00:52:39.993Z,-5.20
2019-01-23T00:55:14.346Z,-5.19
2019-01-23T00:57:42.836Z,-5.21
2019-01-23T01:00:19.629Z,-5.23
2019-01-23T01:02:48.359Z,-5.22
2019-01-23T01:05:17.964Z,-5.27
2019-01-23T01:07:46.546Z,-5.23
2019-01-23T01:10:19.811Z,-5.26
2019-01-23T01:12:48.733Z,-5.26
2019-01-23T01:15:17.732Z,-5.24
2019-01-23T01:17:46.308Z,-5.26
2019-01-23T01:20:16.604Z,-5.23
2019-01-23T01:22:45.319Z,-5.28
2019-01-23T01:25:18.445Z,-5.28
2019-01-23T01:27:46.940Z,-5.27
2019-01-23T01:30:17.964Z,-5.26
2019-01-23T01:32:46.421Z,-5.23
2019-01-23T01:35:14.993Z,-5.25
2019-01-23T01:37:43.531Z,-5.28
2019-01-23T01:40:14.368Z,-5.29
2019-01-23T01:42:42.831Z,-5.30
2019-01-23T01:45:12.859Z,-5.31
2019-01-23T01:47:41.396Z,-5.31
2019-01-23T01:50:16.262Z,-5.24
2019-01-23T01:52:44.730Z,-5.25
2019-01-23T01:55:13.290Z,-5.29
2019-01-23T01:57:41.850Z,-5.27
2019-01-23T02:00:16.101Z,-5.29
2019-01-23T02:02:44.640Z,-5.26
2019-01-23T02:05:13.277Z,-5.24
2019-01-23T02:07:41.803Z,-5.25
2019-01-23T02:10:13.439Z,-5.31
2019-01-23T02:12:41.916Z,-5.26
2019-01-23T02:15:12.548Z,-5.28
2019-01-23T02:17:41.040Z,-5.27
2019-01-23T02:20:12.803Z,-5.37
2019-01-23T02:22:41.339Z,-5.32
2019-01-23T02:25:10.167Z,-5.30
2019-01-23T02:27:38.972Z,-5.29
2019-01-23T02:30:10.534Z,-5.25
2019-01-23T02:32:38.992Z,-5.24
2019-01-23T02:35:09.008Z,-5.25
2019-01-23T02:37:37.481Z,-5.26
2019-01-23T02:40:09.034Z,-5.25
2019-01-23T02:42:37.494Z,-5.21
2019-01-23T02:45:07.662Z,-5.22
2019-01-23T02:47:36.124Z,-5.23
2019-01-23T02:50:07.649Z,-5.24
2019-01-23T02:52:36.187Z,-5.28
2019-01-23T02:55:06.958Z,-5.26
2019-01-23T02:57:35.506Z,-5.23
2019-01-23T03:00:07.234Z,-5.26
2019-01-23T03:02:35.742Z,-5.25
2019-01-23T03:05:06.653Z,-5.17
2019-01-23T03:07:35.130Z,-5.19
2019-01-23T03:10:05.151Z,-5.25
2019-01-23T03:12:33.637Z,-5.27
2019-01-23T03:15:02.174Z,-5.30
2019-01-23T03:17:30.617Z,-5.24
2019-01-23T03:19:59.109Z,-5.26
2019-01-23T03:22:27.611Z,-5.24
2019-01-23T03:24:56.111Z,-5.22
2019-01-23T03:27:24.572Z,-5.19
2019-01-23T03:29:53.078Z,-5.15
2019-01-23T03:32:21.624Z,-5.16
2019-01-23T03:34:50.131Z,-5.24
2019-01-23T03:37:18.608Z,-5.29
2019-01-23T03:39:47.104Z,-5.30
2019-01-23T03:42:15.596Z,-5.22
2019-01-23T03:44:44.095Z,-5.24
2019-01-23T03:47:12.579Z,-5.24
2019-01-23T03:49:41.066Z,-5.25
2019-01-23T03:52:09.540Z,-5.24
2019-01-23T03:54:38.034Z,-5.27
2019-01-23T03:57:06.519Z,-5.15
2019-01-23T03:59:35.024Z,-5.14
2019-01-23T04:02:03.495Z,-5.11
2019-01-23T04:04:31.987Z,-5.17
2019-01-23T04:07:00.466Z,-5.27
2019-01-23T04:09:28.951Z,-5.35
2019-01-23T04:11:57.432Z,-5.27
2019-01-23T04:14:25.935Z,-5.29
2019-01-23T04:16:54.408Z,-5.29
2019-01-23T04:19:22.898Z,-5.36
2019-01-23T04:21:51.372Z,-5.34
2019-01-23T04:24:19.865Z,-5.32
2019-01-23T04:26:48.332Z,-5.26
2019-01-23T04:29:16.820Z,-5.31
2019-01-23T04:31:45.292Z,-5.38
2019-01-23T04:34:13.788Z,-5.36
2019-01-23T04:36:42.261Z,-5.38
2019-01-23T04:39:10.750Z,-5.34
2019-01-23T04:41:39.223Z,-5.25
2019-01-23T04:44:07.808Z,-5.34
2019-01-23T04:46:36.864Z,-5.43
2019-01-23T04:49:05.363Z,-5.40
2019-01-23T04:51:47.745Z,-5.34
2019-01-23T04:54:16.518Z,-5.51
2019-01-23T04:56:44.977Z,-5.55
2019-01-23T04:59:13.454Z,-5.59
2019-01-23T05:01:41.954Z,-5.56
2019-01-23T05:04:10.558Z,-5.53
2019-01-23T05:06:39.049Z,-5.62
2019-01-23T05:09:08.096Z,-5.53
2019-01-23T05:11:36.615Z,-5.48
2019-01-23T05:14:05.701Z,-5.51
2019-01-23T05:16:34.210Z,-5.50
2019-01-23T05:19:02.684Z,-5.50
2019-01-23T05:21:31.265Z,-5.49
2019-01-23T05:23:59.749Z,-5.47
2019-01-23T05:26:28.248Z,-5.43
2019-01-23T05:28:56.729Z,-5.44
2019-01-23T05:31:25.285Z,-5.53
2019-01-23T05:33:53.753Z,-5.53
2019-01-23T05:36:22.328Z,-5.58
2019-01-23T05:38:50.802Z,-5.60
2019-01-23T05:41:19.298Z,-5.65
2019-01-23T05:43:47.804Z,-5.71
2019-01-23T05:46:16.309Z,-5.80
2019-01-23T05:48:44.777Z,-5.73
2019-01-23T05:51:13.349Z,-5.75
2019-01-23T05:53:41.853Z,-5.80
2019-01-23T05:56:10.365Z,-5.73
2019-01-23T05:58:38.842Z,-5.83
2019-01-23T06:01:08.330Z,-5.81
2019-01-23T06:03:36.805Z,-5.69
2019-01-23T06:06:05.302Z,-5.83
2019-01-23T06:08:33.764Z,-5.88
2019-01-23T06:11:02.265Z,-5.90
2019-01-23T06:13:30.742Z,-5.78
2019-01-23T06:15:59.242Z,-5.77
2019-01-23T06:18:27.717Z,-5.88
2019-01-23T06:20:56.215Z,-5.82
2019-01-23T06:23:24.686Z,-5.89
2019-01-23T06:25:53.182Z,-5.86
2019-01-23T06:28:21.653Z,-5.84
2019-01-23T06:30:50.145Z,-5.90
2019-01-23T06:33:18.667Z,-5.89
2019-01-23T06:35:47.163Z,-5.97
2019-01-23T06:38:15.648Z,-5.99
2019-01-23T06:40:44.165Z,-6.00
2019-01-23T06:43:12.653Z,-6.00
2019-01-23T06:45:41.144Z,-6.03
2019-01-23T06:48:09.618Z,-6.08
2019-01-23T06:50:38.117Z,-6.04
2019-01-23T06:53:06.600Z,-5.99
2019-01-23T06:55:35.104Z,-6.01
2019-01-23T06:58:03.572Z,-5.98
2019-01-23T07:00:32.075Z,-5.95
2019-01-23T07:03:00.556Z,-5.93
2019-01-23T07:05:29.223Z,-5.93
2019-01-23T07:07:57.729Z,-6.01
2019-01-23T07:10:26.550Z,-5.98
2019-01-23T07:12:55.155Z,-5.99
2019-01-23T07:15:23.706Z,-6.01
2019-01-23T07:17:52.201Z,-5.92
2019-01-23T07:20:27.148Z,-5.91
2019-01-23T07:22:55.666Z,-5.87
2019-01-23T07:25:24.620Z,-5.82
2019-01-23T07:27:53.112Z,-5.82
2019-01-23T07:30:29.772Z,-5.80
2019-01-23T07:32:58.267Z,-5.76
2019-01-23T07:35:26.738Z,-5.70
2019-01-23T07:37:55.331Z,-5.75
2019-01-23T07:40:23.809Z,-5.77
2019-01-23T07:42:52.324Z,-5.73
2019-01-23T07:45:23.628Z,-5.76
2019-01-23T07:47:52.113Z,-5.67
2019-01-23T07:50:20.591Z,-5.70
2019-01-23T07:52:49.219Z,-5.64
2019-01-23T07:55:19.440Z,-5.62
2019-01-23T07:57:47.948Z,-5.56
2019-01-23T08:00:19.131Z,-5.53
2019-01-23T08:02:47.780Z,-5.56
2019-01-23T08:05:19.703Z,-5.50
2019-01-23T08:07:48.555Z,-5.45
2019-01-23T08:10:19.092Z,-5.36
2019-01-23T08:12:47.775Z,-5.27
2019-01-23T08:15:22.265Z,-5.10
2019-01-23T08:17:50.785Z,-4.92
2019-01-23T08:20:21.935Z,-4.97
2019-01-23T08:22:50.517Z,-5.01
2019-01-23T08:25:19.167Z,-4.93
2019-01-23T08:27:47.668Z,-4.71
2019-01-23T08:30:18.989Z,-4.65
2019-01-23T08:32:47.488Z,-4.62
2019-01-23T08:35:16.800Z,-4.47
2019-01-23T08:37:45.329Z,-4.50
2019-01-23T08:40:15.841Z,-4.36
2019-01-23T08:42:44.615Z,-4.35
2019-01-23T08:45:14.431Z,-4.32
2019-01-23T08:47:43.111Z,-4.30
2019-01-23T08:50:20.501Z,-4.18
2019-01-23T08:52:48.993Z,-4.21
2019-01-23T08:55:17.463Z,-4.43
2019-01-23T08:57:46.128Z,-4.25
2019-01-23T09:00:17.001Z,-4.45
2019-01-23T09:02:45.510Z,-4.49
2019-01-23T09:05:14.522Z,-4.65
2019-01-23T09:07:43.256Z,-4.58
2019-01-23T09:10:20.735Z,-4.57
2019-01-23T09:12:49.301Z,-4.58
2019-01-23T09:15:18.321Z,-4.63
2019-01-23T09:17:46.819Z,-4.58
2019-01-23T09:20:19.702Z,-4.56
2019-01-23T09:22:48.375Z,-4.45
2019-01-23T09:25:19.657Z,-4.52
2019-01-23T09:27:48.419Z,-4.49
2019-01-23T09:30:31.706Z,-4.42
2019-01-23T09:33:24.186Z,-4.42
2019-01-23T09:36:27.601Z,-4.37
2019-01-23T09:39:21.915Z,-4.18
2019-01-23T09:42:08.689Z,-4.03
2019-01-23T09:45:01.428Z,-3.87
2019-01-23T09:47:41.907Z,-3.90
2019-01-23T09:50:16.072Z,-3.84
2019-01-23T09:52:53.695Z,-3.73
2019-01-23T09:55:22.348Z,-3.58
2019-01-23T09:57:51.887Z,-3.80
2019-01-23T10:00:23.573Z,-3.54
2019-01-23T10:02:52.146Z,-3.51
2019-01-23T10:05:20.792Z,-3.27
2019-01-23T10:07:49.305Z,-3.12
2019-01-23T10:10:19.906Z,-2.84
2019-01-23T10:12:48.411Z,-3.02
2019-01-23T10:15:22.594Z,-2.68
2019-01-23T10:17:51.085Z,-2.46
2019-01-23T10:20:19.563Z,-2.66
2019-01-23T10:22:48.047Z,-2.83
2019-01-23T10:25:16.952Z,-2.87
2019-01-23T10:27:45.552Z,-3.14
2019-01-23T10:30:15.487Z,-3.00
2019-01-23T10:32:44.099Z,-2.88
2019-01-23T10:35:18.411Z,-2.81
2019-01-23T10:37:46.867Z,-2.79
2019-01-23T10:40:17.401Z,-3.08
2019-01-23T10:42:46.028Z,-3.11
2019-01-23T10:45:15.613Z,-2.97
2019-01-23T10:47:44.717Z,-2.81
2019-01-23T10:50:20.463Z,-2.64
2019-01-23T10:52:48.942Z,-2.79
2019-01-23T10:55:17.452Z,-2.91
2019-01-23T10:57:46.068Z,-3.19
2019-01-23T11:00:22.411Z,-3.24
2019-01-23T11:02:50.939Z,-3.19
2019-01-23T11:05:24.378Z,-2.97
2019-01-23T11:07:53.020Z,-2.82
2019-01-23T11:10:25.342Z,-3.06
2019-01-23T11:12:53.822Z,-2.77
2019-01-23T11:15:22.714Z,-2.72
2019-01-23T11:17:51.270Z,-2.63
2019-01-23T11:20:21.019Z,-2.75
2019-01-23T11:22:50.797Z,-2.61
2019-01-23T11:25:19.429Z,-2.67
2019-01-23T11:27:48.494Z,-2.84
2019-01-23T11:30:25.662Z,-2.85
2019-01-23T11:32:54.145Z,-2.69
2019-01-23T11:35:23.751Z,-2.79
2019-01-23T11:37:52.415Z,-3.07
2019-01-23T11:40:26.548Z,-2.86
2019-01-23T11:42:55.306Z,-2.88
2019-01-23T11:45:23.881Z,-2.94
2019-01-23T11:47:52.505Z,-3.07
2019-01-23T11:50:23.084Z,-3.03
2019-01-23T11:52:52.439Z,-3.08
2019-01-23T11:55:21.026Z,-3.13
2019-01-23T11:57:49.506Z,-3.37
2019-01-23T12:00:27.306Z,-3.40
2019-01-23T12:02:55.785Z,-3.36
2019-01-23T12:05:25.152Z,-3.39
2019-01-23T12:07:53.770Z,-3.56
2019-01-23T12:10:24.028Z,-3.33
2019-01-23T12:12:52.502Z,-3.64
2019-01-23T12:15:25.360Z,-3.51
2019-01-23T12:17:53.844Z,-3.72
2019-01-23T12:20:25.095Z,-3.68
2019-01-23T12:22:53.741Z,-3.59
2019-01-23T12:25:23.723Z,-3.67
2019-01-23T12:27:53.130Z,-3.67
2019-01-23T12:30:27.560Z,-3.62
2019-01-23T12:32:58.379Z,-3.60
2019-01-23T12:35:27.108Z,-3.56
2019-01-23T12:37:56.923Z,-3.69
2019-01-23T12:40:26.825Z,-3.76
2019-01-23T12:42:55.381Z,-3.70
2019-01-23T12:45:31.645Z,-3.67
2019-01-23T12:48:00.122Z,-3.69
2019-01-23T12:50:32.544Z,-3.70
2019-01-23T12:53:01.033Z,-3.87
2019-01-23T12:55:31.510Z,-3.93
2019-01-23T12:58:00.857Z,-4.03
2019-01-23T13:00:31.939Z,-3.92
2019-01-23T13:03:00.953Z,-4.05
2019-01-23T13:05:29.639Z,-4.12
2019-01-23T13:07:59.128Z,-4.03
2019-01-23T13:10:27.765Z,-4.10
2019-01-23T13:12:56.696Z,-4.04
2019-01-23T13:15:28.355Z,-3.98
2019-01-23T13:17:58.185Z,-4.12
2019-01-23T13:20:30.358Z,-4.38
2019-01-23T13:22:59.182Z,-4.39
2019-01-23T13:25:30.633Z,-4.39
2019-01-23T13:28:01.068Z,-4.43
2019-01-23T13:30:29.544Z,-4.40
2019-01-23T13:32:59.315Z,-4.28
2019-01-23T13:35:33.854Z,-4.30
2019-01-23T13:38:02.817Z,-4.41
2019-01-23T13:40:33.646Z,-4.52
2019-01-23T13:43:03.725Z,-4.57
2019-01-23T13:45:32.196Z,-4.51
2019-01-23T13:48:00.752Z,-4.65
2019-01-23T13:50:29.892Z,-4.48
2019-01-23T13:52:58.405Z,-4.37
2019-01-23T13:55:26.941Z,-4.48
2019-01-23T13:57:55.556Z,-4.56
2019-01-23T14:00:32.793Z,-4.59
2019-01-23T14:03:01.947Z,-4.72
2019-01-23T14:05:32.048Z,-4.71
2019-01-23T14:08:02.186Z,-4.84
2019-01-23T14:10:31.720Z,-4.65
2019-01-23T14:13:00.212Z,-4.81
2019-01-23T14:15:34.082Z,-4.96
2019-01-23T14:18:03.509Z,-4.86
2019-01-23T14:20:31.995Z,-4.80
2019-01-23T14:23:00.517Z,-5.02
2019-01-23T14:25:29.071Z,-4.97
2019-01-23T14:28:00.419Z,-5.03
2019-01-23T14:30:31.535Z,-4.97
2019-01-23T14:33:00.370Z,-4.99
2019-01-23T14:35:30.704Z,-4.94
2019-01-23T14:38:00.796Z,-5.03
2019-01-23T14:40:29.473Z,-5.02
2019-01-23T14:42:58.044Z,-5.08
2019-01-23T14:45:28.657Z,-4.98
2019-01-23T14:47:57.500Z,-5.04
2019-01-23T14:50:25.981Z,-5.01
2019-01-23T14:52:54.615Z,-5.07
2019-01-23T14:55:23.099Z,-5.10
2019-01-23T14:57:51.649Z,-5.04
2019-01-23T15:00:25.204Z,-5.07
2019-01-23T15:02:53.712Z,-5.01
2019-01-23T15:05:22.629Z,-5.09
2019-01-23T15:07:51.139Z,-5.08
2019-01-23T15:10:27.298Z,-5.07
2019-01-23T15:12:55.935Z,-5.09
2019-01-23T15:15:24.552Z,-5.02
2019-01-23T15:17:53.696Z,-5.01
2019-01-23T15:20:25.010Z,-4.98
2019-01-23T15:22:53.520Z,-5.02
2019-01-23T15:25:22.073Z,-5.06
2019-01-23T15:27:50.556Z,-5.04
2019-01-23T15:30:21.583Z,-5.04
2019-01-23T15:32:50.227Z,-5.06
2019-01-23T15:35:19.945Z,-5.09
2019-01-23T15:37:48.437Z,-5.10
2019-01-23T15:40:19.954Z,-5.05
2019-01-23T15:42:48.454Z,-5.03
2019-01-23T15:45:17.072Z,-4.99
2019-01-23T15:47:45.577Z,-4.91
2019-01-23T15:50:22.548Z,-5.04
2019-01-23T15:52:51.121Z,-5.01
2019-01-23T15:55:22.246Z,-4.97
2019-01-23T15:57:50.827Z,-4.91
2019-01-23T16:00:27.600Z,-4.93
2019-01-23T16:02:56.643Z,-4.95
2019-01-23T16:05:25.120Z,-4.99
2019-01-23T16:07:53.680Z,-4.92
2019-01-23T16:10:25.057Z,-4.86
2019-01-23T16:12:53.600Z,-4.87
2019-01-23T16:15:24.442Z,-4.88
2019-01-23T16:17:52.958Z,-4.92
2019-01-23T16:20:21.449Z,-4.90
2019-01-23T16:22:49.992Z,-4.87
2019-01-23T16:25:18.646Z,-4.87
2019-01-23T16:27:47.190Z,-4.86
2019-01-23T16:30:21.537Z,-4.82
2019-01-23T16:32:50.161Z,-4.76
2019-01-23T16:35:18.652Z,-4.84
2019-01-23T16:37:47.126Z,-4.84
2019-01-23T16:40:15.704Z,-4.79
2019-01-23T16:42:44.256Z,-4.75
2019-01-23T16:45:16.394Z,-4.77
2019-01-23T16:47:45.749Z,-4.87
2019-01-23T16:50:17.420Z,-4.88
2019-01-23T16:52:45.944Z,-4.85
2019-01-23T16:55:14.986Z,-4.88
2019-01-23T16:57:44.699Z,-4.90
2019-01-23T17:00:19.165Z,-4.85
2019-01-23T17:02:47.781Z,-4.93
2019-01-23T17:05:22.132Z,-4.92
2019-01-23T17:07:50.669Z,-4.97
2019-01-23T17:10:21.917Z,-4.90
2019-01-23T17:12:50.407Z,-4.81
2019-01-23T17:15:18.889Z,-4.92
2019-01-23T17:17:47.366Z,-4.90
2019-01-23T17:20:18.917Z,-4.91
2019-01-23T17:22:47.461Z,-4.97
2019-01-23T17:25:16.221Z,-4.93
2019-01-23T17:27:44.825Z,-4.91
2019-01-23T17:30:16.564Z,-4.91
2019-01-23T17:32:45.843Z,-4.86
2019-01-23T17:35:19.514Z,-4.83
2019-01-23T17:37:48.083Z,-4.86
2019-01-23T17:40:19.315Z,-4.84
2019-01-23T17:42:48.128Z,-4.96
2019-01-23T17:45:19.680Z,-4.94
2019-01-23T17:47:48.225Z,-4.92
2019-01-23T17:50:19.366Z,-4.92
2019-01-23T17:52:47.840Z,-4.86
2019-01-23T17:55:28.001Z,-4.78
2019-01-23T17:57:56.647Z,-4.83
2019-01-23T18:00:29.255Z,-4.86
2019-01-23T18:02:58.078Z,-4.92
2019-01-23T18:05:26.576Z,-4.95
2019-01-23T18:07:55.507Z,-4.89
2019-01-23T18:10:24.290Z,-4.97
2019-01-23T18:12:52.747Z,-4.93
2019-01-23T18:15:36.154Z,-4.92
2019-01-23T18:18:05.471Z,-4.88
2019-01-23T18:20:33.985Z,-4.99
2019-01-23T18:23:02.518Z,-4.92
2019-01-23T18:25:31.033Z,-4.85
2019-01-23T18:27:59.498Z,-4.79
2019-01-23T18:30:36.889Z,-4.76
2019-01-23T18:33:08.445Z,-4.72
2019-01-23T18:35:46.050Z,-4.69
2019-01-23T18:38:17.577Z,-4.74
2019-01-23T18:40:52.051Z,-4.81
2019-01-23T18:43:38.452Z,-4.80
2019-01-23T18:46:44.854Z,-4.82
2019-01-23T18:49:39.175Z,-4.86
2019-01-23T18:52:13.675Z,-4.80
2019-01-23T18:54:43.391Z,-4.79
2019-01-23T18:57:23.638Z,-4.81
2019-01-23T18:59:58.958Z,-4.80
2019-01-23T19:02:22.542Z,-4.79
2019-01-23T19:04:51.016Z,-4.80
2019-01-23T19:07:19.693Z,-4.81
2019-01-23T19:09:48.297Z,-4.84
2019-01-23T19:12:16.810Z,-4.79
2019-01-23T19:14:45.288Z,-4.76
2019-01-23T19:17:13.793Z,-4.78
2019-01-23T19:19:42.252Z,-4.76
2019-01-23T19:22:10.810Z,-4.83
2019-01-23T19:24:39.561Z,-4.79
2019-01-23T19:27:08.066Z,-4.76
2019-01-23T19:29:36.541Z,-4.69
2019-01-23T19:32:05.379Z,-4.71
2019-01-23T19:34:33.841Z,-4.73
2019-01-23T19:37:02.340Z,-4.75
2019-01-23T19:39:30.818Z,-4.74
2019-01-23T19:41:59.321Z,-4.71
2019-01-23T19:44:27.794Z,-4.65
2019-01-23T19:46:56.304Z,-4.72
2019-01-23T19:49:24.858Z,-4.68
2019-01-23T19:51:53.366Z,-4.70
2019-01-23T19:54:21.833Z,-4.69
2019-01-23T19:56:50.340Z,-4.67
2019-01-23T19:59:18.815Z,-4.66
2019-01-23T20:01:47.325Z,-4.65
2019-01-23T20:04:15.805Z,-4.62
2019-01-23T20:06:44.310Z,-4.63
2019-01-23T20:09:12.945Z,-4.60
2019-01-23T20:11:41.514Z,-4.56
2019-01-23T20:14:10.154Z,-4.54
2019-01-23T20:16:38.729Z,-4.52
2019-01-23T20:19:08.856Z,-4.52
2019-01-23T20:21:37.335Z,-4.44
2019-01-23T20:24:05.917Z,-4.41
2019-01-23T20:26:34.425Z,-4.41
2019-01-23T20:29:02.914Z,-4.39
2019-01-23T20:31:31.396Z,-4.36
2019-01-23T20:33:59.906Z,-4.30
2019-01-23T20:36:28.377Z,-4.29
2019-01-23T20:38:56.874Z,-4.26
2019-01-23T20:41:25.353Z,-4.22
2019-01-23T20:43:53.873Z,-4.19
2019-01-23T20:46:22.351Z,-4.17
2019-01-23T20:48:50.861Z,-4.14
2019-01-23T20:51:19.354Z,-4.14
2019-01-23T20:53:47.839Z,-4.12
2019-01-23T20:56:16.312Z,-4.09
2019-01-23T20:58:44.807Z,-4.07
2019-01-23T21:01:13.319Z,-4.02
2019-01-23T21:03:41.965Z,-4.00
2019-01-23T21:06:11.301Z,-3.97
2019-01-23T21:08:40.569Z,-3.95
2019-01-23T21:11:09.047Z,-3.93
2019-01-23T21:13:37.547Z,-3.86
2019-01-23T21:16:06.182Z,-3.88
2019-01-23T21:18:34.718Z,-3.86
2019-01-23T21:21:03.213Z,-3.79
2019-01-23T21:23:31.716Z,-3.76
2019-01-23T21:26:00.266Z,-3.77
2019-01-23T21:28:28.771Z,-3.73
2019-01-23T21:30:57.267Z,-3.72
2019-01-23T21:33:25.758Z,-3.67
2019-01-23T21:35:54.240Z,-3.64
2019-01-23T21:38:22.744Z,-3.63
2019-01-23T21:40:52.765Z,-3.61
2019-01-23T21:43:21.291Z,-3.59
2019-01-23T21:45:49.800Z,-3.58
2019-01-23T21:48:18.308Z,-3.56
2019-01-23T21:50:48.392Z,-3.53
2019-01-23T21:53:16.895Z,-3.54
2019-01-23T21:55:45.447Z,-3.51
2019-01-23T21:58:13.943Z,-3.48
2019-01-23T22:00:43.565Z,-3.45
2019-01-23T22:03:12.499Z,-3.44
2019-01-23T22:05:41.318Z,-3.39
2019-01-23T22:08:10.082Z,-3.38
2019-01-23T22:10:38.722Z,-3.36
2019-01-23T22:13:07.289Z,-3.37
2019-01-23T22:15:36.025Z,-3.33
2019-01-23T22:18:05.363Z,-3.31
2019-01-23T22:20:34.406Z,-3.31
2019-01-23T22:23:02.942Z,-3.28
2019-01-23T22:25:31.446Z,-3.28
2019-01-23T22:27:59.926Z,-3.21
2019-01-23T22:30:33.694Z,-3.19
2019-01-23T22:33:02.468Z,-3.24
2019-01-23T22:35:30.932Z,-3.22
2019-01-23T22:37:59.543Z,-3.21
2019-01-23T22:40:28.208Z,-3.21
2019-01-23T22:42:56.688Z,-3.18
2019-01-23T22:45:25.183Z,-3.17
2019-01-23T22:47:54.924Z,-3.17
2019-01-23T22:50:25.369Z,-3.11
2019-01-23T22:52:54.011Z,-3.11
2019-01-23T22:55:22.847Z,-3.14
2019-01-23T22:57:51.405Z,-3.11
2019-01-23T23:00:30.598Z,-3.08
2019-01-23T23:02:59.074Z,-3.09
2019-01-23T23:05:27.638Z,-3.07
2019-01-23T23:07:56.135Z,-3.08
2019-01-23T23:10:24.777Z,-3.07
2019-01-23T23:12:53.252Z,-3.04
2019-01-23T23:15:21.810Z,-3.03
2019-01-23T23:17:50.289Z,-3.03
2019-01-23T23:20:18.784Z,-3.03
2019-01-23T23:22:47.266Z,-3.00
2019-01-23T23:25:15.993Z,-2.99
2019-01-23T23:27:44.475Z,-3.00
2019-01-23T23:30:18.954Z,-3.00
2019-01-23T23:32:47.429Z,-3.00
2019-01-23T23:35:15.987Z,-2.93
2019-01-23T23:37:44.539Z,-2.91
2019-01-23T23:40:16.872Z,-2.96
2019-01-23T23:42:45.586Z,-2.93
2019-01-23T23:45:16.243Z,-2.93
2019-01-23T23:47:44.923Z,-2.92
2019-01-23T23:50:15.666Z,-2.91
2019-01-23T23:52:44.523Z,-2.88
2019-01-23T23:55:14.961Z,-2.87
2019-01-23T23:57:43.742Z,-2.91
